Chicago, Illinois
Current Conditions -  °F | °C
As of 4:53 AM on Saturday 01 Nov 2014 (Local Time) from KMDW Reporting Station
Overcast Overcast  
Wind Chill: 33°   Ceiling: 3700
Heat Index: 40°   Visibility: 10mi
Dew Point: 27°   Wind: 13mph
Humidity: 60%   Direction: 10°N
Pressure: 30.35"   Gusts: NA
Location:  41.88°N, 87.63°W
Report Text: KMDW 010953Z 01011KT 10SM OVC037 04/M03 A3035 RMK AO2 SLP287 T00441028
Loading
Personal Weather Stations






























Interactive Weather Map New forecast layout! Learn more

10-Day Weather Forecast

Advertisements
Track Severe Weather on mobile